sensor_id;sensor_type;location;lat;lon;timestamp;P1;durP1;ratioP1;P2;durP2;ratioP2
24677;SDS011;12800;53.094;8.778;2022-08-19T00:02:24;11.50;;;7.78;;
24677;SDS011;12800;53.094;8.778;2022-08-19T00:04:50;12.27;;;8.25;;
24677;SDS011;12800;53.094;8.778;2022-08-19T00:07:18;9.90;;;7.40;;
24677;SDS011;12800;53.094;8.778;2022-08-19T00:09:44;10.50;;;7.05;;
24677;SDS011;12800;53.094;8.778;2022-08-19T00:12:10;12.10;;;8.02;;
24677;SDS011;12800;53.094;8.778;2022-08-19T00:14:36;10.00;;;7.60;;
24677;SDS011;12800;53.094;8.778;2022-08-19T00:17:03;9.15;;;7.00;;
24677;SDS011;12800;53.094;8.778;2022-08-19T00:19:30;12.63;;;7.93;;
24677;SDS011;12800;53.094;8.778;2022-08-19T00:21:56;11.85;;;7.78;;
24677;SDS011;12800;53.094;8.778;2022-08-19T00:24:21;10.98;;;7.07;;
24677;SDS011;12800;53.094;8.778;2022-08-19T00:26:48;14.13;;;8.88;;
24677;SDS011;12800;53.094;8.778;2022-08-19T00:29:16;10.13;;;8.32;;
24677;SDS011;12800;53.094;8.778;2022-08-19T00:31:45;10.38;;;7.60;;
24677;SDS011;12800;53.094;8.778;2022-08-19T00:34:12;10.65;;;8.00;;
24677;SDS011;12800;53.094;8.778;2022-08-19T00:36:39;10.50;;;7.95;;
24677;SDS011;12800;53.094;8.778;2022-08-19T00:39:05;16.50;;;8.68;;
24677;SDS011;12800;53.094;8.778;2022-08-19T00:41:32;13.15;;;8.55;;
24677;SDS011;12800;53.094;8.778;2022-08-19T00:43:59;13.13;;;8.73;;
24677;SDS011;12800;53.094;8.778;2022-08-19T00:46:45;14.55;;;8.77;;
24677;SDS011;12800;53.094;8.778;2022-08-19T00:49:17;16.27;;;8.90;;
24677;SDS011;12800;53.094;8.778;2022-08-19T00:51:53;12.52;;;9.02;;
24677;SDS011;12800;53.094;8.778;2022-08-19T00:54:24;15.93;;;9.05;;
24677;SDS011;12800;53.094;8.778;2022-08-19T00:56:51;16.60;;;9.52;;
24677;SDS011;12800;53.094;8.778;2022-08-19T00:59:17;9.95;;;8.18;;
24677;SDS011;12800;53.094;8.778;2022-08-19T01:01:44;14.90;;;8.27;;
24677;SDS011;12800;53.094;8.778;2022-08-19T01:04:11;11.18;;;7.95;;
24677;SDS011;12800;53.094;8.778;2022-08-19T01:06:38;11.52;;;8.05;;
24677;SDS011;12800;53.094;8.778;2022-08-19T01:09:06;14.77;;;8.30;;
24677;SDS011;12800;53.094;8.778;2022-08-19T01:11:33;11.57;;;7.90;;
24677;SDS011;12800;53.094;8.778;2022-08-19T01:14:03;11.45;;;7.72;;
24677;SDS011;12800;53.094;8.778;2022-08-19T01:16:30;12.65;;;8.18;;
24677;SDS011;12800;53.094;8.778;2022-08-19T01:18:58;13.00;;;8.02;;
24677;SDS011;12800;53.094;8.778;2022-08-19T01:23:49;13.20;;;9.18;;
24677;SDS011;12800;53.094;8.778;2022-08-19T01:26:17;13.65;;;9.25;;
24677;SDS011;12800;53.094;8.778;2022-08-19T01:28:45;11.68;;;8.02;;
24677;SDS011;12800;53.094;8.778;2022-08-19T01:31:15;10.75;;;8.02;;
24677;SDS011;12800;53.094;8.778;2022-08-19T01:33:43;13.63;;;8.02;;
24677;SDS011;12800;53.094;8.778;2022-08-19T01:36:11;12.52;;;8.48;;
24677;SDS011;12800;53.094;8.778;2022-08-19T01:38:46;11.50;;;7.63;;
24677;SDS011;12800;53.094;8.778;2022-08-19T01:41:13;11.38;;;7.40;;
24677;SDS011;12800;53.094;8.778;2022-08-19T01:43:39;11.55;;;7.38;;
24677;SDS011;12800;53.094;8.778;2022-08-19T01:46:05;11.20;;;7.38;;
24677;SDS011;12800;53.094;8.778;2022-08-19T01:48:36;11.40;;;7.70;;
24677;SDS011;12800;53.094;8.778;2022-08-19T01:51:06;12.48;;;8.23;;
24677;SDS011;12800;53.094;8.778;2022-08-19T01:53:32;10.80;;;7.45;;
24677;SDS011;12800;53.094;8.778;2022-08-19T01:55:58;11.73;;;8.25;;
24677;SDS011;12800;53.094;8.778;2022-08-19T01:58:26;13.07;;;8.98;;
24677;SDS011;12800;53.094;8.778;2022-08-19T02:00:55;12.38;;;8.32;;
24677;SDS011;12800;53.094;8.778;2022-08-19T02:03:21;13.63;;;8.50;;
24677;SDS011;12800;53.094;8.778;2022-08-19T02:05:48;11.65;;;8.40;;
24677;SDS011;12800;53.094;8.778;2022-08-19T02:08:20;12.23;;;8.00;;
24677;SDS011;12800;53.094;8.778;2022-08-19T02:10:45;10.75;;;8.35;;
24677;SDS011;12800;53.094;8.778;2022-08-19T02:13:11;13.85;;;8.68;;
24677;SDS011;12800;53.094;8.778;2022-08-19T02:15:38;13.57;;;7.80;;
24677;SDS011;12800;53.094;8.778;2022-08-19T02:18:04;10.48;;;8.68;;
24677;SDS011;12800;53.094;8.778;2022-08-19T02:20:30;10.60;;;8.57;;
24677;SDS011;12800;53.094;8.778;2022-08-19T02:22:56;13.52;;;8.70;;
24677;SDS011;12800;53.094;8.778;2022-08-19T02:25:21;11.80;;;8.50;;
24677;SDS011;12800;53.094;8.778;2022-08-19T02:27:47;11.40;;;8.13;;
24677;SDS011;12800;53.094;8.778;2022-08-19T02:30:13;12.52;;;8.73;;
24677;SDS011;12800;53.094;8.778;2022-08-19T02:32:41;12.55;;;8.40;;
24677;SDS011;12800;53.094;8.778;2022-08-19T02:35:07;11.65;;;8.70;;
24677;SDS011;12800;53.094;8.778;2022-08-19T02:37:33;11.25;;;8.65;;
24677;SDS011;12800;53.094;8.778;2022-08-19T02:40:18;16.15;;;9.32;;
24677;SDS011;12800;53.094;8.778;2022-08-19T02:42:44;13.05;;;9.45;;
24677;SDS011;12800;53.094;8.778;2022-08-19T02:45:10;17.30;;;10.23;;
24677;SDS011;12800;53.094;8.778;2022-08-19T02:47:38;12.93;;;9.65;;
24677;SDS011;12800;53.094;8.778;2022-08-19T02:50:04;14.35;;;9.75;;
24677;SDS011;12800;53.094;8.778;2022-08-19T02:52:31;13.40;;;9.95;;
24677;SDS011;12800;53.094;8.778;2022-08-19T02:54:57;13.30;;;9.10;;
24677;SDS011;12800;53.094;8.778;2022-08-19T02:57:23;13.98;;;9.88;;
24677;SDS011;12800;53.094;8.778;2022-08-19T02:59:49;11.32;;;8.80;;
24677;SDS011;12800;53.094;8.778;2022-08-19T03:02:15;12.32;;;9.07;;
24677;SDS011;12800;53.094;8.778;2022-08-19T03:04:41;11.65;;;8.77;;
24677;SDS011;12800;53.094;8.778;2022-08-19T03:07:07;11.85;;;8.65;;
24677;SDS011;12800;53.094;8.778;2022-08-19T03:09:35;10.88;;;8.57;;
24677;SDS011;12800;53.094;8.778;2022-08-19T03:12:03;11.07;;;8.63;;
24677;SDS011;12800;53.094;8.778;2022-08-19T03:14:35;10.68;;;8.48;;
24677;SDS011;12800;53.094;8.778;2022-08-19T03:17:01;12.60;;;9.20;;
24677;SDS011;12800;53.094;8.778;2022-08-19T03:19:28;11.45;;;8.48;;
24677;SDS011;12800;53.094;8.778;2022-08-19T03:21:53;14.32;;;8.75;;
24677;SDS011;12800;53.094;8.778;2022-08-19T03:24:20;10.07;;;7.82;;
24677;SDS011;12800;53.094;8.778;2022-08-19T03:26:47;9.68;;;7.50;;
24677;SDS011;12800;53.094;8.778;2022-08-19T03:29:17;10.05;;;8.00;;
24677;SDS011;12800;53.094;8.778;2022-08-19T03:31:44;11.63;;;8.77;;
24677;SDS011;12800;53.094;8.778;2022-08-19T03:34:11;10.18;;;8.60;;
24677;SDS011;12800;53.094;8.778;2022-08-19T03:36:42;13.32;;;8.45;;
24677;SDS011;12800;53.094;8.778;2022-08-19T03:39:10;12.82;;;8.80;;
24677;SDS011;12800;53.094;8.778;2022-08-19T03:41:36;14.45;;;9.38;;
24677;SDS011;12800;53.094;8.778;2022-08-19T03:44:04;12.90;;;10.00;;
24677;SDS011;12800;53.094;8.778;2022-08-19T03:46:30;13.93;;;10.63;;
24677;SDS011;12800;53.094;8.778;2022-08-19T03:48:58;11.48;;;10.27;;
24677;SDS011;12800;53.094;8.778;2022-08-19T03:51:26;15.52;;;10.75;;
24677;SDS011;12800;53.094;8.778;2022-08-19T03:53:58;16.42;;;10.77;;
24677;SDS011;12800;53.094;8.778;2022-08-19T03:56:26;17.58;;;12.32;;
24677;SDS011;12800;53.094;8.778;2022-08-19T03:58:55;14.35;;;11.38;;
24677;SDS011;12800;53.094;8.778;2022-08-19T04:01:23;19.83;;;11.75;;
24677;SDS011;12800;53.094;8.778;2022-08-19T04:03:51;18.25;;;12.95;;
24677;SDS011;12800;53.094;8.778;2022-08-19T04:06:21;19.67;;;12.27;;
24677;SDS011;12800;53.094;8.778;2022-08-19T04:08:50;17.67;;;12.60;;
24677;SDS011;12800;53.094;8.778;2022-08-19T04:11:17;13.93;;;10.85;;
24677;SDS011;12800;53.094;8.778;2022-08-19T04:13:46;15.93;;;11.90;;
24677;SDS011;12800;53.094;8.778;2022-08-19T04:16:12;13.43;;;10.55;;
24677;SDS011;12800;53.094;8.778;2022-08-19T04:18:38;15.77;;;11.18;;
24677;SDS011;12800;53.094;8.778;2022-08-19T04:21:06;13.30;;;10.35;;
24677;SDS011;12800;53.094;8.778;2022-08-19T04:23:33;14.10;;;10.70;;
24677;SDS011;12800;53.094;8.778;2022-08-19T04:26:01;11.98;;;9.77;;
24677;SDS011;12800;53.094;8.778;2022-08-19T04:28:27;12.60;;;9.85;;
24677;SDS011;12800;53.094;8.778;2022-08-19T04:30:54;14.60;;;9.70;;
24677;SDS011;12800;53.094;8.778;2022-08-19T04:33:21;12.35;;;10.25;;
24677;SDS011;12800;53.094;8.778;2022-08-19T04:35:50;12.85;;;9.80;;
24677;SDS011;12800;53.094;8.778;2022-08-19T04:38:18;18.17;;;9.90;;
24677;SDS011;12800;53.094;8.778;2022-08-19T04:40:48;13.10;;;10.02;;
24677;SDS011;12800;53.094;8.778;2022-08-19T04:43:35;11.93;;;9.93;;
24677;SDS011;12800;53.094;8.778;2022-08-19T04:46:09;12.25;;;9.55;;
24677;SDS011;12800;53.094;8.778;2022-08-19T04:48:36;14.88;;;10.73;;
24677;SDS011;12800;53.094;8.778;2022-08-19T04:51:06;13.88;;;10.68;;
24677;SDS011;12800;53.094;8.778;2022-08-19T04:53:35;17.02;;;10.50;;
24677;SDS011;12800;53.094;8.778;2022-08-19T04:56:09;13.73;;;10.70;;
24677;SDS011;12800;53.094;8.778;2022-08-19T04:58:36;18.65;;;12.45;;
24677;SDS011;12800;53.094;8.778;2022-08-19T05:01:04;18.08;;;12.65;;
24677;SDS011;12800;53.094;8.778;2022-08-19T05:03:29;21.80;;;14.35;;
24677;SDS011;12800;53.094;8.778;2022-08-19T05:06:03;23.05;;;14.25;;
24677;SDS011;12800;53.094;8.778;2022-08-19T05:08:35;24.67;;;14.43;;
24677;SDS011;12800;53.094;8.778;2022-08-19T05:11:09;23.40;;;14.40;;
24677;SDS011;12800;53.094;8.778;2022-08-19T05:13:36;27.27;;;15.93;;
24677;SDS011;12800;53.094;8.778;2022-08-19T05:16:02;32.75;;;17.15;;
24677;SDS011;12800;53.094;8.778;2022-08-19T05:18:28;27.98;;;15.75;;
24677;SDS011;12800;53.094;8.778;2022-08-19T05:21:15;27.50;;;15.77;;
24677;SDS011;12800;53.094;8.778;2022-08-19T05:24:01;30.38;;;17.40;;
24677;SDS011;12800;53.094;8.778;2022-08-19T05:26:27;31.33;;;17.52;;
24677;SDS011;12800;53.094;8.778;2022-08-19T05:28:53;28.42;;;17.27;;
24677;SDS011;12800;53.094;8.778;2022-08-19T05:31:20;36.38;;;17.88;;
24677;SDS011;12800;53.094;8.778;2022-08-19T05:33:46;37.95;;;17.15;;
24677;SDS011;12800;53.094;8.778;2022-08-19T05:36:12;33.15;;;16.95;;
24677;SDS011;12800;53.094;8.778;2022-08-19T05:38:39;39.30;;;17.63;;
24677;SDS011;12800;53.094;8.778;2022-08-19T05:41:11;32.90;;;17.92;;
24677;SDS011;12800;53.094;8.778;2022-08-19T05:43:37;30.13;;;17.02;;
24677;SDS011;12800;53.094;8.778;2022-08-19T05:46:04;32.50;;;16.77;;
24677;SDS011;12800;53.094;8.778;2022-08-19T05:48:31;28.77;;;15.82;;
24677;SDS011;12800;53.094;8.778;2022-08-19T05:51:06;33.72;;;17.08;;
24677;SDS011;12800;53.094;8.778;2022-08-19T05:53:33;32.22;;;16.98;;
24677;SDS011;12800;53.094;8.778;2022-08-19T05:56:06;28.08;;;15.55;;
24677;SDS011;12800;53.094;8.778;2022-08-19T05:58:34;30.85;;;16.33;;
24677;SDS011;12800;53.094;8.778;2022-08-19T06:01:00;31.13;;;16.50;;
24677;SDS011;12800;53.094;8.778;2022-08-19T06:03:30;28.90;;;16.60;;
24677;SDS011;12800;53.094;8.778;2022-08-19T06:05:56;29.40;;;16.48;;
24677;SDS011;12800;53.094;8.778;2022-08-19T06:08:24;33.97;;;17.20;;
24677;SDS011;12800;53.094;8.778;2022-08-19T06:10:53;34.53;;;17.95;;
24677;SDS011;12800;53.094;8.778;2022-08-19T06:13:19;29.35;;;17.48;;
24677;SDS011;12800;53.094;8.778;2022-08-19T06:15:46;29.38;;;17.60;;
24677;SDS011;12800;53.094;8.778;2022-08-19T06:18:12;28.02;;;17.05;;
24677;SDS011;12800;53.094;8.778;2022-08-19T06:20:39;29.70;;;17.95;;
24677;SDS011;12800;53.094;8.778;2022-08-19T06:23:06;34.15;;;17.30;;
24677;SDS011;12800;53.094;8.778;2022-08-19T06:25:32;31.10;;;17.95;;
24677;SDS011;12800;53.094;8.778;2022-08-19T06:27:57;30.98;;;17.70;;
24677;SDS011;12800;53.094;8.778;2022-08-19T06:30:23;27.92;;;16.52;;
24677;SDS011;12800;53.094;8.778;2022-08-19T06:32:49;29.70;;;17.10;;
24677;SDS011;12800;53.094;8.778;2022-08-19T06:35:14;32.30;;;16.55;;
24677;SDS011;12800;53.094;8.778;2022-08-19T06:37:40;30.58;;;17.33;;
24677;SDS011;12800;53.094;8.778;2022-08-19T06:40:07;28.35;;;16.10;;
24677;SDS011;12800;53.094;8.778;2022-08-19T06:42:35;30.35;;;17.58;;
24677;SDS011;12800;53.094;8.778;2022-08-19T06:45:03;29.23;;;16.65;;
24677;SDS011;12800;53.094;8.778;2022-08-19T06:47:30;29.65;;;15.43;;
24677;SDS011;12800;53.094;8.778;2022-08-19T06:49:58;28.10;;;14.57;;
24677;SDS011;12800;53.094;8.778;2022-08-19T06:52:32;30.65;;;15.75;;
24677;SDS011;12800;53.094;8.778;2022-08-19T06:54:59;27.45;;;15.02;;
24677;SDS011;12800;53.094;8.778;2022-08-19T06:57:26;23.88;;;14.40;;
24677;SDS011;12800;53.094;8.778;2022-08-19T06:59:52;25.23;;;13.77;;
24677;SDS011;12800;53.094;8.778;2022-08-19T07:02:18;25.23;;;13.98;;
24677;SDS011;12800;53.094;8.778;2022-08-19T07:04:45;26.83;;;12.95;;
24677;SDS011;12800;53.094;8.778;2022-08-19T07:07:12;21.23;;;12.15;;
24677;SDS011;12800;53.094;8.778;2022-08-19T07:09:40;15.93;;;11.05;;
24677;SDS011;12800;53.094;8.778;2022-08-19T07:12:08;15.65;;;11.10;;
24677;SDS011;12800;53.094;8.778;2022-08-19T07:14:35;12.98;;;9.30;;
24677;SDS011;12800;53.094;8.778;2022-08-19T07:17:02;16.00;;;9.30;;
24677;SDS011;12800;53.094;8.778;2022-08-19T07:19:36;13.07;;;7.78;;
24677;SDS011;12800;53.094;8.778;2022-08-19T07:22:03;15.43;;;9.35;;
24677;SDS011;12800;53.094;8.778;2022-08-19T07:24:30;15.07;;;7.13;;
24677;SDS011;12800;53.094;8.778;2022-08-19T07:26:58;7.65;;;5.95;;
24677;SDS011;12800;53.094;8.778;2022-08-19T07:29:27;9.48;;;5.93;;
24677;SDS011;12800;53.094;8.778;2022-08-19T07:31:54;10.20;;;5.03;;
24677;SDS011;12800;53.094;8.778;2022-08-19T07:34:21;9.38;;;4.50;;
24677;SDS011;12800;53.094;8.778;2022-08-19T07:36:48;5.18;;;3.58;;
24677;SDS011;12800;53.094;8.778;2022-08-19T07:39:16;4.93;;;3.78;;
24677;SDS011;12800;53.094;8.778;2022-08-19T07:41:45;6.07;;;4.38;;
24677;SDS011;12800;53.094;8.778;2022-08-19T07:44:11;6.97;;;5.00;;
24677;SDS011;12800;53.094;8.778;2022-08-19T07:46:39;6.07;;;4.82;;
24677;SDS011;12800;53.094;8.778;2022-08-19T07:49:12;6.90;;;4.25;;
24677;SDS011;12800;53.094;8.778;2022-08-19T07:51:44;4.35;;;3.42;;
24677;SDS011;12800;53.094;8.778;2022-08-19T07:54:16;3.53;;;3.15;;
24677;SDS011;12800;53.094;8.778;2022-08-19T07:56:42;3.42;;;2.88;;
24677;SDS011;12800;53.094;8.778;2022-08-19T07:59:08;5.93;;;3.20;;
24677;SDS011;12800;53.094;8.778;2022-08-19T08:01:34;5.82;;;4.03;;
24677;SDS011;12800;53.094;8.778;2022-08-19T08:04:00;5.45;;;3.70;;
24677;SDS011;12800;53.094;8.778;2022-08-19T08:06:45;5.47;;;3.85;;
24677;SDS011;12800;53.094;8.778;2022-08-19T08:09:30;4.20;;;3.60;;
24677;SDS011;12800;53.094;8.778;2022-08-19T08:12:06;3.72;;;3.15;;
24677;SDS011;12800;53.094;8.778;2022-08-19T08:14:42;4.75;;;3.65;;
24677;SDS011;12800;53.094;8.778;2022-08-19T08:17:10;4.75;;;3.70;;
24677;SDS011;12800;53.094;8.778;2022-08-19T08:19:37;4.05;;;3.60;;
24677;SDS011;12800;53.094;8.778;2022-08-19T08:22:06;3.75;;;3.33;;
24677;SDS011;12800;53.094;8.778;2022-08-19T08:24:33;5.05;;;3.03;;
24677;SDS011;12800;53.094;8.778;2022-08-19T08:27:00;4.13;;;2.97;;
24677;SDS011;12800;53.094;8.778;2022-08-19T08:29:26;3.42;;;2.75;;
24677;SDS011;12800;53.094;8.778;2022-08-19T08:31:54;5.40;;;2.80;;
24677;SDS011;12800;53.094;8.778;2022-08-19T08:34:20;5.10;;;3.10;;
24677;SDS011;12800;53.094;8.778;2022-08-19T08:36:46;3.67;;;3.22;;
24677;SDS011;12800;53.094;8.778;2022-08-19T08:39:16;4.18;;;3.13;;
24677;SDS011;12800;53.094;8.778;2022-08-19T08:42:48;4.38;;;2.80;;
24677;SDS011;12800;53.094;8.778;2022-08-19T08:45:11;4.82;;;3.35;;
24677;SDS011;12800;53.094;8.778;2022-08-19T08:47:41;3.63;;;2.80;;
24677;SDS011;12800;53.094;8.778;2022-08-19T08:52:45;4.88;;;2.95;;
24677;SDS011;12800;53.094;8.778;2022-08-19T08:55:19;4.20;;;2.63;;
24677;SDS011;12800;53.094;8.778;2022-08-19T09:00:17;3.85;;;2.78;;
24677;SDS011;12800;53.094;8.778;2022-08-19T09:02:50;3.72;;;2.90;;
24677;SDS011;12800;53.094;8.778;2022-08-19T09:05:15;4.43;;;2.85;;
24677;SDS011;12800;53.094;8.778;2022-08-19T09:07:55;5.07;;;2.40;;
24677;SDS011;12800;53.094;8.778;2022-08-19T09:10:51;4.00;;;2.45;;
24677;SDS011;12800;53.094;8.778;2022-08-19T09:15:57;2.17;;;1.92;;
24677;SDS011;12800;53.094;8.778;2022-08-19T09:18:39;8.77;;;3.53;;
24677;SDS011;12800;53.094;8.778;2022-08-19T09:21:06;4.50;;;1.80;;
24677;SDS011;12800;53.094;8.778;2022-08-19T09:23:33;2.30;;;1.90;;
24677;SDS011;12800;53.094;8.778;2022-08-19T09:26:00;3.63;;;1.83;;
24677;SDS011;12800;53.094;8.778;2022-08-19T09:28:26;3.00;;;2.13;;
24677;SDS011;12800;53.094;8.778;2022-08-19T09:30:52;3.17;;;2.35;;
24677;SDS011;12800;53.094;8.778;2022-08-19T09:33:18;5.00;;;2.30;;
24677;SDS011;12800;53.094;8.778;2022-08-19T09:35:44;2.72;;;1.98;;
24677;SDS011;12800;53.094;8.778;2022-08-19T09:38:11;4.90;;;2.13;;
24677;SDS011;12800;53.094;8.778;2022-08-19T09:40:36;2.95;;;2.55;;
24677;SDS011;12800;53.094;8.778;2022-08-19T09:43:02;2.60;;;2.40;;
24677;SDS011;12800;53.094;8.778;2022-08-19T09:45:28;3.65;;;2.10;;
24677;SDS011;12800;53.094;8.778;2022-08-19T09:47:54;3.00;;;1.80;;
24677;SDS011;12800;53.094;8.778;2022-08-19T09:50:19;2.58;;;2.35;;
24677;SDS011;12800;53.094;8.778;2022-08-19T09:52:46;4.13;;;2.28;;
24677;SDS011;12800;53.094;8.778;2022-08-19T09:55:12;2.25;;;1.80;;
24677;SDS011;12800;53.094;8.778;2022-08-19T09:57:38;2.13;;;1.80;;
24677;SDS011;12800;53.094;8.778;2022-08-19T10:00:04;6.43;;;1.83;;
24677;SDS011;12800;53.094;8.778;2022-08-19T10:02:32;4.95;;;1.80;;
24677;SDS011;12800;53.094;8.778;2022-08-19T10:04:57;4.57;;;2.60;;
24677;SDS011;12800;53.094;8.778;2022-08-19T10:07:41;3.78;;;2.63;;
24677;SDS011;12800;53.094;8.778;2022-08-19T10:10:07;2.67;;;2.35;;
24677;SDS011;12800;53.094;8.778;2022-08-19T10:12:34;6.63;;;2.35;;
24677;SDS011;12800;53.094;8.778;2022-08-19T10:15:00;5.22;;;2.30;;
24677;SDS011;12800;53.094;8.778;2022-08-19T10:17:26;6.72;;;2.65;;
24677;SDS011;12800;53.094;8.778;2022-08-19T10:19:52;5.97;;;3.03;;
24677;SDS011;12800;53.094;8.778;2022-08-19T10:22:18;4.10;;;2.55;;
24677;SDS011;12800;53.094;8.778;2022-08-19T10:24:45;3.95;;;2.00;;
24677;SDS011;12800;53.094;8.778;2022-08-19T10:27:11;4.32;;;2.30;;
24677;SDS011;12800;53.094;8.778;2022-08-19T10:29:38;4.85;;;2.50;;
24677;SDS011;12800;53.094;8.778;2022-08-19T10:32:05;4.03;;;2.20;;
24677;SDS011;12800;53.094;8.778;2022-08-19T10:34:33;6.25;;;2.28;;
24677;SDS011;12800;53.094;8.778;2022-08-19T10:37:02;5.30;;;2.20;;
24677;SDS011;12800;53.094;8.778;2022-08-19T10:39:31;4.47;;;2.28;;
24677;SDS011;12800;53.094;8.778;2022-08-19T10:41:58;3.00;;;1.80;;
24677;SDS011;12800;53.094;8.778;2022-08-19T10:44:24;2.65;;;1.85;;
24677;SDS011;12800;53.094;8.778;2022-08-19T10:46:50;4.57;;;1.70;;
24677;SDS011;12800;53.094;8.778;2022-08-19T10:49:17;5.53;;;2.13;;
24677;SDS011;12800;53.094;8.778;2022-08-19T10:51:44;5.68;;;2.10;;
24677;SDS011;12800;53.094;8.778;2022-08-19T10:54:28;3.25;;;1.85;;
24677;SDS011;12800;53.094;8.778;2022-08-19T10:57:12;3.58;;;1.23;;
24677;SDS011;12800;53.094;8.778;2022-08-19T10:59:39;4.05;;;1.42;;
24677;SDS011;12800;53.094;8.778;2022-08-19T11:02:05;3.63;;;1.48;;
24677;SDS011;12800;53.094;8.778;2022-08-19T11:04:35;1.60;;;1.05;;
24677;SDS011;12800;53.094;8.778;2022-08-19T11:07:02;3.92;;;0.90;;
24677;SDS011;12800;53.094;8.778;2022-08-19T11:09:29;4.15;;;1.52;;
24677;SDS011;12800;53.094;8.778;2022-08-19T11:11:56;5.50;;;2.00;;
24677;SDS011;12800;53.094;8.778;2022-08-19T11:14:22;4.43;;;1.50;;
24677;SDS011;12800;53.094;8.778;2022-08-19T11:16:50;5.25;;;3.28;;
24677;SDS011;12800;53.094;8.778;2022-08-19T11:19:21;3.53;;;2.38;;
24677;SDS011;12800;53.094;8.778;2022-08-19T11:21:48;4.18;;;2.20;;
24677;SDS011;12800;53.094;8.778;2022-08-19T11:24:16;2.85;;;1.30;;
24677;SDS011;12800;53.094;8.778;2022-08-19T11:26:47;6.15;;;1.30;;
24677;SDS011;12800;53.094;8.778;2022-08-19T11:29:14;2.92;;;1.20;;
24677;SDS011;12800;53.094;8.778;2022-08-19T11:31:43;1.70;;;1.52;;
24677;SDS011;12800;53.094;8.778;2022-08-19T11:34:11;2.05;;;1.10;;
24677;SDS011;12800;53.094;8.778;2022-08-19T11:36:41;4.45;;;1.55;;
24677;SDS011;12800;53.094;8.778;2022-08-19T11:39:09;2.72;;;1.77;;
24677;SDS011;12800;53.094;8.778;2022-08-19T11:41:37;5.65;;;3.30;;
24677;SDS011;12800;53.094;8.778;2022-08-19T11:44:03;4.85;;;2.05;;
24677;SDS011;12800;53.094;8.778;2022-08-19T11:46:30;5.18;;;2.45;;
24677;SDS011;12800;53.094;8.778;2022-08-19T11:48:56;8.05;;;5.40;;
24677;SDS011;12800;53.094;8.778;2022-08-19T11:51:24;3.90;;;2.13;;
24677;SDS011;12800;53.094;8.778;2022-08-19T11:53:54;2.38;;;1.30;;
24677;SDS011;12800;53.094;8.778;2022-08-19T11:56:21;3.78;;;1.80;;
24677;SDS011;12800;53.094;8.778;2022-08-19T11:58:48;2.00;;;1.10;;
24677;SDS011;12800;53.094;8.778;2022-08-19T12:01:16;1.73;;;0.88;;
24677;SDS011;12800;53.094;8.778;2022-08-19T12:03:44;3.25;;;1.10;;
24677;SDS011;12800;53.094;8.778;2022-08-19T12:06:13;2.75;;;1.13;;
24677;SDS011;12800;53.094;8.778;2022-08-19T12:08:44;3.75;;;2.22;;
24677;SDS011;12800;53.094;8.778;2022-08-19T12:11:10;2.28;;;1.20;;
24677;SDS011;12800;53.094;8.778;2022-08-19T12:13:38;2.47;;;1.00;;
24677;SDS011;12800;53.094;8.778;2022-08-19T12:16:24;5.47;;;1.67;;
24677;SDS011;12800;53.094;8.778;2022-08-19T12:18:52;1.80;;;1.15;;
24677;SDS011;12800;53.094;8.778;2022-08-19T12:21:19;2.35;;;1.20;;
24677;SDS011;12800;53.094;8.778;2022-08-19T12:23:50;4.50;;;1.20;;
24677;SDS011;12800;53.094;8.778;2022-08-19T12:26:16;2.88;;;1.30;;
24677;SDS011;12800;53.094;8.778;2022-08-19T12:28:42;4.00;;;1.30;;
24677;SDS011;12800;53.094;8.778;2022-08-19T12:31:09;1.85;;;1.20;;
24677;SDS011;12800;53.094;8.778;2022-08-19T12:33:38;1.73;;;1.38;;
24677;SDS011;12800;53.094;8.778;2022-08-19T12:36:06;1.38;;;1.10;;
24677;SDS011;12800;53.094;8.778;2022-08-19T12:38:35;3.33;;;1.48;;
24677;SDS011;12800;53.094;8.778;2022-08-19T12:41:02;2.88;;;1.60;;
24677;SDS011;12800;53.094;8.778;2022-08-19T12:43:31;3.13;;;1.38;;
24677;SDS011;12800;53.094;8.778;2022-08-19T12:46:01;2.60;;;1.10;;
24677;SDS011;12800;53.094;8.778;2022-08-19T12:48:27;2.25;;;1.00;;
24677;SDS011;12800;53.094;8.778;2022-08-19T12:50:54;2.38;;;1.20;;
24677;SDS011;12800;53.094;8.778;2022-08-19T12:53:19;4.63;;;0.90;;
24677;SDS011;12800;53.094;8.778;2022-08-19T12:55:45;5.28;;;1.08;;
24677;SDS011;12800;53.094;8.778;2022-08-19T12:58:11;1.67;;;0.90;;
24677;SDS011;12800;53.094;8.778;2022-08-19T13:00:37;1.25;;;0.90;;
24677;SDS011;12800;53.094;8.778;2022-08-19T13:03:03;1.27;;;0.75;;
24677;SDS011;12800;53.094;8.778;2022-08-19T13:05:29;1.70;;;0.60;;
24677;SDS011;12800;53.094;8.778;2022-08-19T13:07:58;1.70;;;0.73;;
24677;SDS011;12800;53.094;8.778;2022-08-19T13:10:25;0.52;;;0.52;;
24677;SDS011;12800;53.094;8.778;2022-08-19T13:12:54;3.58;;;1.35;;
24677;SDS011;12800;53.094;8.778;2022-08-19T13:15:21;0.85;;;0.73;;
24677;SDS011;12800;53.094;8.778;2022-08-19T13:17:48;1.00;;;0.90;;
24677;SDS011;12800;53.094;8.778;2022-08-19T13:20:16;0.70;;;0.70;;
24677;SDS011;12800;53.094;8.778;2022-08-19T13:22:44;1.98;;;0.80;;
24677;SDS011;12800;53.094;8.778;2022-08-19T13:25:11;2.40;;;0.90;;
24677;SDS011;12800;53.094;8.778;2022-08-19T13:27:38;1.20;;;0.68;;
24677;SDS011;12800;53.094;8.778;2022-08-19T13:30:05;0.98;;;0.82;;
24677;SDS011;12800;53.094;8.778;2022-08-19T13:32:52;0.73;;;0.70;;
24677;SDS011;12800;53.094;8.778;2022-08-19T13:35:36;5.25;;;0.80;;
24677;SDS011;12800;53.094;8.778;2022-08-19T13:38:13;0.88;;;0.70;;
24677;SDS011;12800;53.094;8.778;2022-08-19T13:40:41;1.98;;;1.10;;
24677;SDS011;12800;53.094;8.778;2022-08-19T13:43:07;3.85;;;2.00;;
24677;SDS011;12800;53.094;8.778;2022-08-19T13:45:34;2.58;;;1.30;;
24677;SDS011;12800;53.094;8.778;2022-08-19T13:48:01;1.15;;;0.90;;
24677;SDS011;12800;53.094;8.778;2022-08-19T13:50:33;1.00;;;0.90;;
24677;SDS011;12800;53.094;8.778;2022-08-19T13:53:02;3.03;;;1.88;;
24677;SDS011;12800;53.094;8.778;2022-08-19T13:55:29;1.02;;;0.90;;
24677;SDS011;12800;53.094;8.778;2022-08-19T13:57:56;1.52;;;0.88;;
24677;SDS011;12800;53.094;8.778;2022-08-19T14:00:25;1.20;;;1.10;;
24677;SDS011;12800;53.094;8.778;2022-08-19T14:02:55;1.10;;;0.88;;
24677;SDS011;12800;53.094;8.778;2022-08-19T14:05:22;1.63;;;0.75;;
24677;SDS011;12800;53.094;8.778;2022-08-19T14:07:49;0.88;;;0.70;;
24677;SDS011;12800;53.094;8.778;2022-08-19T14:10:15;3.47;;;1.33;;
24677;SDS011;12800;53.094;8.778;2022-08-19T14:12:41;1.85;;;0.85;;
24677;SDS011;12800;53.094;8.778;2022-08-19T14:15:07;1.58;;;1.00;;
24677;SDS011;12800;53.094;8.778;2022-08-19T14:17:37;2.03;;;1.13;;
24677;SDS011;12800;53.094;8.778;2022-08-19T14:20:06;2.53;;;0.90;;
24677;SDS011;12800;53.094;8.778;2022-08-19T14:22:34;1.20;;;1.00;;
24677;SDS011;12800;53.094;8.778;2022-08-19T14:25:00;2.35;;;0.93;;
24677;SDS011;12800;53.094;8.778;2022-08-19T14:27:26;2.15;;;1.00;;
24677;SDS011;12800;53.094;8.778;2022-08-19T14:29:52;2.88;;;0.90;;
24677;SDS011;12800;53.094;8.778;2022-08-19T14:32:18;1.25;;;1.15;;
24677;SDS011;12800;53.094;8.778;2022-08-19T14:34:44;2.08;;;0.85;;
24677;SDS011;12800;53.094;8.778;2022-08-19T14:37:13;1.40;;;1.20;;
24677;SDS011;12800;53.094;8.778;2022-08-19T14:39:42;2.85;;;1.92;;
24677;SDS011;12800;53.094;8.778;2022-08-19T14:42:10;2.75;;;1.50;;
24677;SDS011;12800;53.094;8.778;2022-08-19T14:44:36;3.22;;;1.80;;
24677;SDS011;12800;53.094;8.778;2022-08-19T14:47:02;1.58;;;1.10;;
24677;SDS011;12800;53.094;8.778;2022-08-19T14:49:28;1.77;;;1.33;;
24677;SDS011;12800;53.094;8.778;2022-08-19T14:51:54;0.82;;;0.82;;
24677;SDS011;12800;53.094;8.778;2022-08-19T14:54:20;2.60;;;1.10;;
24677;SDS011;12800;53.094;8.778;2022-08-19T14:56:46;3.15;;;1.40;;